Time;durP1;ratioP1;P1;durP2;ratioP2;P2;SDS_P1;SDS_P2;PMS_P1;PMS_P2;Temp;Humidity;BMP_temperature;BMP_pressure;BME280_temperature;BME280_humidity;BME280_pressure;Samples;Min_cycle;Max_cycle;Signal;HPM_P1;HPM_P2
2023/09/22 00:00:10;;;;;;;6.60;3.50;;;13.70;99.90;;;;;;5005620;28;20042;-57
2023/09/22 00:02:36;;;;;;;4.97;3.60;;;13.70;99.90;;;;;;5006379;28;20038;-57
2023/09/22 00:05:01;;;;;;;5.80;4.05;;;13.70;99.90;;;;;;5005045;28;20488;-56
2023/09/22 00:07:27;;;;;;;6.40;3.38;;;13.70;99.90;;;;;;5004777;28;20120;-57
2023/09/22 00:09:53;;;;;;;5.07;3.40;;;13.70;99.90;;;;;;5004558;28;20058;-57
2023/09/22 00:12:18;;;;;;;4.80;3.58;;;13.60;99.90;;;;;;5004705;28;20046;-57
2023/09/22 00:14:45;;;;;;;4.75;3.80;;;13.70;99.90;;;;;;5005976;28;20101;-55
2023/09/22 00:17:10;;;;;;;5.28;3.63;;;13.80;99.90;;;;;;4996175;28;20046;-55
2023/09/22 00:19:36;;;;;;;4.50;3.63;;;13.80;99.90;;;;;;4986662;28;20053;-57
2023/09/22 00:22:03;;;;;;;6.30;4.07;;;13.80;99.90;;;;;;4985869;28;20097;-56
2023/09/22 00:24:28;;;;;;;3.92;3.40;;;13.70;99.90;;;;;;4985412;28;20808;-57
2023/09/22 00:26:54;;;;;;;5.05;3.35;;;13.80;99.90;;;;;;4986491;28;20115;-56
2023/09/22 00:29:20;;;;;;;5.82;3.88;;;13.80;99.90;;;;;;4986634;28;20042;-57
2023/09/22 00:31:46;;;;;;;5.63;3.70;;;13.70;99.90;;;;;;4995694;28;20049;-57
2023/09/22 00:34:12;;;;;;;6.00;3.70;;;13.90;99.90;;;;;;4986520;28;20050;-55
2023/09/22 00:36:37;;;;;;;4.78;3.80;;;13.80;99.90;;;;;;4985937;28;20106;-56
2023/09/22 00:39:04;;;;;;;7.65;3.70;;;13.80;99.90;;;;;;4986192;28;20125;-56
2023/09/22 00:41:30;;;;;;;4.30;3.40;;;13.90;99.90;;;;;;4985040;28;20046;-56
2023/09/22 00:43:55;;;;;;;6.68;3.70;;;13.80;99.90;;;;;;4985840;28;20508;-56
2023/09/22 00:46:26;;;;;;;5.55;3.80;;;13.80;99.90;;;;;;4984870;28;20078;-56
2023/09/22 00:48:52;;;;;;;4.40;3.28;;;13.80;99.90;;;;;;4985408;28;20120;-57
2023/09/22 00:51:19;;;;;;;4.93;3.38;;;14.00;99.90;;;;;;4985846;28;20133;-57
2023/09/22 00:53:47;;;;;;;6.70;3.70;;;13.90;99.90;;;;;;4985334;28;20117;-57
2023/09/22 00:56:17;;;;;;;6.65;3.65;;;13.90;99.90;;;;;;4985598;28;20528;-55
2023/09/22 00:58:42;;;;;;;6.85;3.60;;;13.90;99.90;;;;;;4985579;28;20043;-53
2023/09/22 01:01:08;;;;;;;4.57;3.40;;;13.90;99.90;;;;;;4984382;28;20050;-58
2023/09/22 01:03:34;;;;;;;4.50;3.30;;;14.10;99.90;;;;;;4985169;28;20100;-53
2023/09/22 01:05:59;;;;;;;6.75;3.95;;;13.90;99.90;;;;;;4983173;28;20072;-57
2023/09/22 01:08:25;;;;;;;4.45;3.53;;;13.90;99.90;;;;;;4984322;28;20058;-55
2023/09/22 01:10:51;;;;;;;5.60;3.75;;;13.90;99.90;;;;;;4984848;28;20513;-54
2023/09/22 01:13:16;;;;;;;4.43;3.40;;;13.90;99.90;;;;;;4990030;28;20103;-53
2023/09/22 01:15:45;;;;;;;6.88;3.72;;;14.00;99.90;;;;;;5003182;28;20037;-56
2023/09/22 01:18:13;;;;;;;5.68;3.95;;;14.30;99.90;;;;;;5003807;28;20045;-56
2023/09/22 01:20:45;;;;;;;6.85;4.57;;;14.00;99.90;;;;;;5003752;28;20050;-55
2023/09/22 01:23:12;;;;;;;9.88;5.57;;;14.10;99.90;;;;;;5003438;28;20090;-56
2023/09/22 01:25:39;;;;;;;7.22;5.18;;;14.10;99.90;;;;;;5002623;28;20049;-56
2023/09/22 01:28:06;;;;;;;8.55;6.15;;;14.10;99.90;;;;;;5004052;28;20061;-54
2023/09/22 01:30:33;;;;;;;11.70;7.28;;;14.00;99.90;;;;;;4996757;28;20173;-56
2023/09/22 01:33:04;;;;;;;11.57;8.35;;;14.10;99.90;;;;;;4996061;28;20050;-59
2023/09/22 01:35:35;;;;;;;12.00;8.90;;;14.10;99.90;;;;;;5003006;28;20389;-54
2023/09/22 01:38:15;;;;;;;15.23;9.93;;;14.10;99.90;;;;;;5003112;28;20038;-56
2023/09/22 01:40:42;;;;;;;13.73;10.35;;;14.20;99.90;;;;;;5004437;28;20045;-56
2023/09/22 01:43:08;;;;;;;16.45;10.95;;;14.20;99.90;;;;;;5004645;28;20159;-53
2023/09/22 01:45:34;;;;;;;14.02;10.00;;;14.30;99.90;;;;;;5003285;28;20050;-56
2023/09/22 01:48:00;;;;;;;13.55;10.40;;;14.20;99.90;;;;;;5004384;28;20072;-55
2023/09/22 01:50:25;;;;;;;15.23;10.85;;;14.20;99.90;;;;;;5004327;28;20042;-57
2023/09/22 01:52:52;;;;;;;13.77;9.93;;;14.40;99.90;;;;;;5003515;28;20050;-53
2023/09/22 01:55:19;;;;;;;15.88;11.50;;;14.20;99.90;;;;;;5003654;28;20085;-56
2023/09/22 01:57:53;;;;;;;16.60;12.00;;;14.20;99.90;;;;;;5004447;28;20476;-56
2023/09/22 02:00:19;;;;;;;17.02;12.75;;;14.50;99.90;;;;;;5003593;28;20038;-57
2023/09/22 02:02:47;;;;;;;17.83;13.10;;;14.20;99.90;;;;;;5003683;28;20050;-53
2023/09/22 02:05:16;;;;;;;20.48;14.35;;;14.30;99.90;;;;;;5003227;28;20204;-56
2023/09/22 02:07:45;;;;;;;20.92;14.70;;;14.30;99.90;;;;;;5003038;28;20053;-56
2023/09/22 02:10:13;;;;;;;21.30;15.95;;;14.30;99.90;;;;;;5003238;28;20049;-53
2023/09/22 02:12:40;;;;;;;22.10;16.60;;;14.30;99.90;;;;;;5004129;28;20046;-57
2023/09/22 02:15:10;;;;;;;22.25;16.85;;;14.30;99.90;;;;;;5002875;28;20451;-55
2023/09/22 02:17:40;;;;;;;22.88;16.50;;;14.30;99.90;;;;;;5001949;28;20243;-56
2023/09/22 02:20:17;;;;;;;22.98;17.58;;;14.30;99.90;;;;;;5004141;28;20053;-56
2023/09/22 02:22:47;;;;;;;22.60;17.27;;;14.30;99.90;;;;;;5003936;28;20420;-56
2023/09/22 02:25:17;;;;;;;25.25;18.67;;;14.40;99.90;;;;;;5002858;28;20046;-54
2023/09/22 02:27:43;;;;;;;23.33;18.08;;;14.30;99.90;;;;;;5003687;28;20461;-56
2023/09/22 02:30:10;;;;;;;24.42;18.38;;;14.20;99.90;;;;;;4997625;28;20459;-55
2023/09/22 02:32:37;;;;;;;24.30;18.65;;;14.30;99.90;;;;;;4991948;28;20070;-54
2023/09/22 02:35:02;;;;;;;29.17;19.10;;;14.40;99.90;;;;;;4983968;28;20129;-55
2023/09/22 02:37:29;;;;;;;25.13;19.90;;;14.30;99.90;;;;;;4984220;28;20113;-55
2023/09/22 02:39:55;;;;;;;28.38;20.67;;;14.40;99.90;;;;;;4983172;28;20159;-54
2023/09/22 02:42:21;;;;;;;27.70;21.42;;;14.30;99.90;;;;;;4982676;28;20125;-55
2023/09/22 02:44:46;;;;;;;28.23;21.80;;;14.50;99.90;;;;;;4983670;28;20450;-57
2023/09/22 02:47:13;;;;;;;27.00;21.40;;;14.40;99.90;;;;;;4983803;28;20046;-55
2023/09/22 02:49:38;;;;;;;29.08;21.33;;;14.30;99.90;;;;;;4983418;28;20050;-56
2023/09/22 02:52:04;;;;;;;26.52;20.70;;;14.30;99.90;;;;;;4983238;28;20049;-55
2023/09/22 02:54:29;;;;;;;27.02;20.38;;;14.30;99.90;;;;;;4982733;28;20470;-57
2023/09/22 02:56:55;;;;;;;27.85;21.13;;;14.30;99.90;;;;;;4983774;28;20042;-56
2023/09/22 02:59:22;;;;;;;27.27;20.70;;;14.20;99.90;;;;;;4983262;28;20053;-56
2023/09/22 03:01:49;;;;;;;27.65;20.58;;;14.20;99.90;;;;;;4984192;28;20049;-57
2023/09/22 03:04:15;;;;;;;30.58;22.00;;;14.20;99.90;;;;;;4984235;28;20070;-56
2023/09/22 03:06:41;;;;;;;29.45;21.98;;;14.20;99.90;;;;;;4982898;28;20547;-57
2023/09/22 03:09:07;;;;;;;27.23;21.00;;;14.30;99.90;;;;;;4983912;28;20101;-55
2023/09/22 03:11:33;;;;;;;28.08;21.65;;;14.30;99.90;;;;;;4982420;28;20057;-57
2023/09/22 03:13:59;;;;;;;27.52;21.35;;;14.30;99.90;;;;;;4982382;28;20057;-55
2023/09/22 03:16:28;;;;;;;30.20;21.83;;;14.30;99.90;;;;;;4981849;28;20388;-57
2023/09/22 03:18:54;;;;;;;26.80;21.90;;;14.20;99.90;;;;;;4987289;28;20082;-57
2023/09/22 03:21:22;;;;;;;27.17;20.80;;;14.20;99.90;;;;;;4986389;28;20074;-56
2023/09/22 03:23:49;;;;;;;30.25;22.60;;;14.20;99.90;;;;;;5001604;28;20053;-53
2023/09/22 03:26:15;;;;;;;27.45;21.65;;;14.10;99.90;;;;;;5006762;28;20042;-56
2023/09/22 03:28:41;;;;;;;28.00;22.15;;;14.20;99.90;;;;;;5007420;28;20042;-56
2023/09/22 03:31:07;;;;;;;31.13;22.33;;;14.20;99.90;;;;;;4999892;28;20114;-57
2023/09/22 03:33:33;;;;;;;28.35;22.05;;;14.20;99.90;;;;;;4988522;28;20173;-56
2023/09/22 03:35:59;;;;;;;29.20;22.85;;;14.20;99.90;;;;;;4987191;28;20096;-55
2023/09/22 03:38:25;;;;;;;28.00;21.40;;;14.30;99.90;;;;;;4987162;28;20152;-57
2023/09/22 03:40:54;;;;;;;28.33;21.67;;;14.20;99.90;;;;;;4987613;28;20508;-56
2023/09/22 03:43:19;;;;;;;28.88;22.95;;;14.30;99.90;;;;;;4986098;28;20054;-57
2023/09/22 03:45:45;;;;;;;28.95;21.88;;;14.20;99.90;;;;;;4996823;28;20049;-55
2023/09/22 03:48:11;;;;;;;28.17;21.65;;;14.20;99.90;;;;;;5006827;28;20071;-57
2023/09/22 03:50:36;;;;;;;27.75;20.85;;;14.30;99.90;;;;;;5006070;28;20054;-55
2023/09/22 03:53:02;;;;;;;30.00;21.80;;;14.20;99.90;;;;;;5006495;28;20048;-57
2023/09/22 03:55:28;;;;;;;28.30;21.52;;;14.20;99.90;;;;;;5006305;28;20389;-55
2023/09/22 03:57:55;;;;;;;29.67;21.02;;;14.30;99.90;;;;;;5006784;28;20048;-56
2023/09/22 04:00:27;;;;;;;28.48;21.13;;;14.20;99.90;;;;;;5005289;28;20481;-57
2023/09/22 04:02:53;;;;;;;27.63;20.70;;;14.20;99.90;;;;;;5006948;28;20057;-54
2023/09/22 04:05:18;;;;;;;28.27;20.63;;;14.10;99.90;;;;;;5004771;28;20041;-56
2023/09/22 04:07:44;;;;;;;26.50;20.65;;;14.40;99.90;;;;;;5005311;28;20046;-57
2023/09/22 04:10:10;;;;;;;27.38;20.30;;;14.20;99.90;;;;;;5004548;28;20053;-57
2023/09/22 04:12:36;;;;;;;27.20;20.95;;;14.20;99.90;;;;;;5005894;28;20046;-54
2023/09/22 04:15:06;;;;;;;28.23;20.85;;;14.20;99.90;;;;;;5005233;28;20052;-55
2023/09/22 04:17:32;;;;;;;29.67;19.77;;;14.10;99.90;;;;;;5006113;28;20038;-57
2023/09/22 04:19:58;;;;;;;28.17;20.42;;;14.00;99.90;;;;;;5005617;28;20041;-56
2023/09/22 04:22:24;;;;;;;29.10;21.13;;;14.10;99.90;;;;;;5004924;28;20073;-57
2023/09/22 04:24:58;;;;;;;29.80;20.60;;;14.00;99.90;;;;;;5003888;28;20045;-57
2023/09/22 04:27:28;;;;;;;;;;;14.00;99.90;;;;;;5006425;28;20096;-55
2023/09/22 04:29:54;;;;;;;29.33;20.80;;;13.90;99.90;;;;;;5001913;28;19961;-57
2023/09/22 04:32:21;;;;;;;28.35;20.08;;;13.90;99.90;;;;;;4993651;28;20050;-55
2023/09/22 04:34:48;;;;;;;28.88;21.08;;;14.00;99.90;;;;;;4986020;28;20053;-55
2023/09/22 04:37:15;;;;;;;30.45;21.20;;;14.00;99.90;;;;;;4986615;28;20429;-56
2023/09/22 04:39:40;;;;;;;28.23;20.95;;;14.00;99.90;;;;;;4985475;28;20487;-56
2023/09/22 04:42:06;;;;;;;26.88;19.67;;;13.90;99.90;;;;;;4986307;28;20113;-54
2023/09/22 04:44:32;;;;;;;29.38;19.23;;;14.00;99.90;;;;;;4984557;28;20100;-57
2023/09/22 04:46:59;;;;;;;25.95;19.40;;;14.00;99.90;;;;;;4985988;28;20054;-55
2023/09/22 04:49:25;;;;;;;25.40;19.10;;;14.40;99.90;;;;;;4985667;28;20043;-58
2023/09/22 04:51:51;;;;;;;28.38;20.83;;;13.90;99.90;;;;;;4985844;28;20050;-55
2023/09/22 04:54:18;;;;;;;25.75;19.88;;;13.90;99.90;;;;;;4985760;28;20038;-56
2023/09/22 04:56:45;;;;;;;26.88;19.63;;;14.00;99.90;;;;;;4983478;28;20133;-56
2023/09/22 04:59:10;;;;;;;27.13;19.73;;;14.00;99.90;;;;;;4985442;28;20417;-56
2023/09/22 05:01:36;;;;;;;26.27;19.45;;;14.00;99.90;;;;;;4985744;28;20046;-57
2023/09/22 05:04:03;;;;;;;29.95;20.25;;;13.90;99.90;;;;;;4985874;28;20374;-56
2023/09/22 05:06:28;;;;;;;29.45;20.63;;;13.90;99.90;;;;;;4985129;28;20057;-55
2023/09/22 05:08:54;;;;;;;28.25;20.77;;;13.90;99.90;;;;;;4986065;28;20446;-56
2023/09/22 05:11:20;;;;;;;27.40;20.15;;;13.90;99.90;;;;;;4985222;28;20101;-56
2023/09/22 05:13:46;;;;;;;30.60;21.92;;;13.90;99.90;;;;;;4985316;28;20085;-57
2023/09/22 05:16:18;;;;;;;28.90;21.13;;;13.90;99.90;;;;;;4983319;28;20092;-57
2023/09/22 05:18:43;;;;;;;27.58;20.98;;;13.90;99.90;;;;;;4984362;28;20046;-57
2023/09/22 05:21:09;;;;;;;28.48;21.42;;;14.00;99.90;;;;;;4984564;28;20065;-56
2023/09/22 05:23:35;;;;;;;29.40;21.30;;;13.80;99.90;;;;;;4983624;28;20038;-57
2023/09/22 05:26:07;;;;;;;29.38;20.98;;;13.70;99.90;;;;;;4984832;28;20045;-57
2023/09/22 05:28:33;;;;;;;29.60;21.77;;;13.80;99.90;;;;;;4984080;28;20571;-57
2023/09/22 05:31:00;;;;;;;29.33;21.88;;;13.80;99.90;;;;;;4990787;28;22035;-57
2023/09/22 05:33:25;;;;;;;27.42;21.17;;;13.80;99.90;;;;;;4990836;28;20050;-55
2023/09/22 05:35:51;;;;;;;30.67;21.83;;;13.80;99.90;;;;;;4984748;28;20054;-54
2023/09/22 05:38:17;;;;;;;31.98;21.88;;;13.80;99.90;;;;;;4983378;28;20054;-57
2023/09/22 05:40:43;;;;;;;31.73;22.92;;;13.70;99.90;;;;;;4984195;28;20047;-56
2023/09/22 05:43:14;;;;;;;32.22;22.55;;;13.70;99.90;;;;;;4984677;28;20042;-57
2023/09/22 05:45:41;;;;;;;31.55;23.20;;;13.80;99.90;;;;;;4982321;28;20129;-56
2023/09/22 05:48:07;;;;;;;30.55;22.52;;;14.10;99.90;;;;;;4984021;28;20050;-55
2023/09/22 05:50:35;;;;;;;29.17;21.63;;;13.70;99.90;;;;;;4984266;28;20038;-56
2023/09/22 05:53:02;;;;;;;30.17;22.48;;;13.60;99.90;;;;;;4984566;28;20117;-57
2023/09/22 05:55:28;;;;;;;29.15;22.52;;;13.90;99.90;;;;;;4985207;28;20042;-56
2023/09/22 05:57:54;;;;;;;29.80;22.67;;;13.60;99.90;;;;;;4983095;28;20464;-57
2023/09/22 06:00:25;;;;;;;30.65;22.60;;;13.70;99.90;;;;;;4984256;28;20045;-57
2023/09/22 06:02:52;;;;;;;33.78;22.20;;;13.60;99.90;;;;;;4996879;28;20081;-57
2023/09/22 06:05:24;;;;;;;32.15;23.75;;;13.70;99.90;;;;;;4990024;28;20042;-56
2023/09/22 06:07:51;;;;;;;32.22;22.73;;;13.60;99.90;;;;;;4993070;28;20065;-57
2023/09/22 06:10:17;;;;;;;34.65;23.92;;;13.70;99.90;;;;;;5003828;28;20084;-57
2023/09/22 06:12:43;;;;;;;35.20;25.40;;;13.60;99.90;;;;;;5002985;28;20046;-57
2023/09/22 06:15:10;;;;;;;37.03;24.40;;;13.60;99.90;;;;;;5002965;28;20045;-57
2023/09/22 06:17:37;;;;;;;34.40;25.55;;;13.70;99.90;;;;;;5003249;28;20081;-57
2023/09/22 06:20:13;;;;;;;37.55;26.58;;;13.70;99.90;;;;;;5003282;28;20071;-52
2023/09/22 06:22:42;;;;;;;37.78;26.83;;;13.70;99.90;;;;;;5003357;28;20042;-57
2023/09/22 06:25:08;;;;;;;37.30;26.30;;;13.70;99.90;;;;;;5002867;28;20053;-55
2023/09/22 06:27:34;;;;;;;35.95;25.70;;;13.80;99.90;;;;;;5002644;28;20034;-57
2023/09/22 06:30:01;;;;;;;38.30;26.15;;;13.70;99.90;;;;;;5000984;28;20414;-53
2023/09/22 06:32:26;;;;;;;35.15;26.40;;;13.60;99.90;;;;;;4992522;28;20054;-56
2023/09/22 06:34:53;;;;;;;33.47;24.98;;;13.70;99.90;;;;;;4983836;28;20225;-54
2023/09/22 06:37:19;;;;;;;37.50;25.58;;;13.70;99.90;;;;;;4982936;28;20061;-56
2023/09/22 06:39:46;;;;;;;32.60;25.08;;;13.70;99.90;;;;;;4984249;28;20115;-57
2023/09/22 06:42:11;;;;;;;33.53;25.33;;;13.70;99.90;;;;;;4984329;28;20046;-55
2023/09/22 06:44:37;;;;;;;33.95;25.08;;;13.70;99.90;;;;;;4982552;28;20425;-56
2023/09/22 06:47:04;;;;;;;33.25;25.35;;;13.70;99.90;;;;;;4983522;28;20104;-57
2023/09/22 06:49:32;;;;;;;34.95;24.25;;;13.80;99.90;;;;;;4983900;28;20046;-57
2023/09/22 06:51:59;;;;;;;29.85;22.63;;;13.80;99.90;;;;;;4985250;28;20050;-57
2023/09/22 06:54:26;;;;;;;30.05;22.80;;;13.90;99.90;;;;;;4989517;28;20046;-55
2023/09/22 06:56:52;;;;;;;29.95;21.92;;;13.90;99.90;;;;;;4989853;28;20042;-56
2023/09/22 06:59:21;;;;;;;28.73;22.20;;;13.90;99.90;;;;;;4987511;28;20122;-47
2023/09/22 07:01:47;;;;;;;28.80;21.30;;;13.90;99.90;;;;;;4989369;28;20046;-57
2023/09/22 07:04:12;;;;;;;32.17;22.27;;;13.90;99.90;;;;;;4988820;28;20041;-62
2023/09/22 07:06:40;;;;;;;26.70;21.08;;;14.00;99.90;;;;;;4989008;28;20038;-62
2023/09/22 07:09:09;;;;;;;28.13;20.65;;;14.10;99.90;;;;;;4987679;28;20085;-62
2023/09/22 07:11:40;;;;;;;28.48;19.88;;;14.20;99.90;;;;;;4987975;28;20043;-63
2023/09/22 07:14:08;;;;;;;25.90;20.27;;;14.20;99.90;;;;;;4988818;28;20266;-63
2023/09/22 07:16:35;;;;;;;25.60;19.40;;;14.20;99.90;;;;;;4989682;28;20089;-63
2023/09/22 07:19:00;;;;;;;24.60;18.27;;;14.10;99.90;;;;;;4988959;28;20054;-63
2023/09/22 07:21:27;;;;;;;27.23;18.42;;;14.10;99.90;;;;;;4989008;28;20101;-63
2023/09/22 07:23:55;;;;;;;24.08;18.02;;;14.10;99.90;;;;;;4990019;28;20441;-63
2023/09/22 07:26:20;;;;;;;22.67;18.15;;;14.20;99.90;;;;;;4988410;28;20050;-63
2023/09/22 07:28:46;;;;;;;23.38;17.50;;;14.20;99.90;;;;;;4987660;28;20412;-66
2023/09/22 07:31:20;;;;;;;20.67;16.95;;;14.20;99.90;;;;;;4996568;28;20088;-63
2023/09/22 07:33:46;;;;;;;20.65;17.02;;;14.20;99.90;;;;;;4990408;28;20042;-62
2023/09/22 07:36:13;;;;;;;22.35;15.73;;;14.30;99.90;;;;;;4994569;28;20057;-63
2023/09/22 07:38:39;;;;;;;20.10;15.63;;;14.30;99.90;;;;;;4996912;28;20070;-57
2023/09/22 07:41:04;;;;;;;21.65;15.60;;;14.30;99.90;;;;;;4993950;28;20077;-62
2023/09/22 07:43:30;;;;;;;18.90;14.98;;;14.20;99.90;;;;;;5005378;28;20046;-63
2023/09/22 07:46:04;;;;;;;19.33;14.77;;;14.30;99.90;;;;;;5003977;28;20167;-63
2023/09/22 07:48:30;;;;;;;18.95;16.02;;;14.30;99.90;;;;;;5002834;28;20030;-63
2023/09/22 07:50:57;;;;;;;18.70;14.43;;;14.30;99.90;;;;;;5008741;28;20137;-63
2023/09/22 07:53:25;;;;;;;19.98;15.02;;;14.20;99.90;;;;;;5005051;28;20106;-63
2023/09/22 07:56:00;;;;;;;17.58;13.63;;;14.20;99.90;;;;;;4999443;28;20050;-62
2023/09/22 07:58:27;;;;;;;18.00;14.60;;;14.20;99.90;;;;;;5007341;28;20069;-63
2023/09/22 08:00:53;;;;;;;17.00;13.95;;;14.20;99.90;;;;;;5006112;28;20480;-63
2023/09/22 08:03:20;;;;;;;19.60;14.15;;;14.30;99.90;;;;;;5007333;28;20049;-62
2023/09/22 08:05:46;;;;;;;16.73;13.48;;;14.20;99.90;;;;;;5005416;28;20054;-62
2023/09/22 08:08:13;;;;;;;17.90;13.30;;;14.20;99.90;;;;;;5004757;28;20673;-60
2023/09/22 08:10:39;;;;;;;18.90;13.52;;;14.10;99.90;;;;;;5005747;28;20049;-62
2023/09/22 08:13:08;;;;;;;18.75;13.38;;;14.20;99.90;;;;;;5005692;28;20091;-63
2023/09/22 08:15:37;;;;;;;19.27;13.10;;;14.50;99.90;;;;;;4990035;28;20042;-66
2023/09/22 08:18:07;;;;;;;18.45;13.50;;;14.30;99.90;;;;;;4986317;28;20054;-64
2023/09/22 08:20:34;;;;;;;16.67;12.70;;;14.20;99.90;;;;;;4986133;28;20088;-63
2023/09/22 08:23:00;;;;;;;15.05;12.27;;;14.30;99.90;;;;;;4984561;28;20120;-64
2023/09/22 08:25:26;;;;;;;19.35;13.20;;;14.80;99.90;;;;;;4985207;28;20513;-63
2023/09/22 08:27:52;;;;;;;17.77;12.65;;;14.20;99.90;;;;;;4986025;28;20048;-63
2023/09/22 08:30:19;;;;;;;19.20;12.25;;;14.30;99.90;;;;;;4987991;28;20043;-64
2023/09/22 08:32:45;;;;;;;18.33;12.88;;;14.30;99.90;;;;;;4993106;28;20464;-63
2023/09/22 08:35:17;;;;;;;16.08;11.98;;;14.30;99.90;;;;;;4986188;28;20039;-64
2023/09/22 08:37:43;;;;;;;18.23;11.45;;;14.30;99.90;;;;;;5000365;28;20444;-64
2023/09/22 08:40:11;;;;;;;16.20;11.57;;;14.60;99.90;;;;;;5005028;28;20492;-63
2023/09/22 08:42:37;;;;;;;16.67;11.75;;;14.50;99.90;;;;;;5005325;28;20301;-63
2023/09/22 08:45:08;;;;;;;15.57;11.63;;;14.60;99.90;;;;;;5005753;28;20037;-63
2023/09/22 08:47:39;;;;;;;14.52;10.75;;;14.70;99.90;;;;;;5006497;28;20046;-63
2023/09/22 08:50:13;;;;;;;15.38;10.55;;;14.90;99.90;;;;;;5000949;28;20077;-64
2023/09/22 08:52:40;;;;;;;21.45;10.20;;;14.80;99.90;;;;;;5000697;28;20100;-66
2023/09/22 08:55:12;;;;;;;13.98;9.90;;;14.80;99.90;;;;;;4987076;28;20042;-61
2023/09/22 08:57:41;;;;;;;20.17;9.35;;;14.80;99.90;;;;;;4986024;28;20046;-61
2023/09/22 09:00:12;;;;;;;13.10;8.77;;;14.90;99.90;;;;;;4984146;28;20088;-61
2023/09/22 09:02:39;;;;;;;14.30;9.23;;;14.90;99.90;;;;;;4985430;28;20046;-61
2023/09/22 09:05:27;;;;;;;12.60;8.52;;;14.80;99.90;;;;;;4984968;28;20148;-61
2023/09/22 09:07:53;;;;;;;12.65;8.10;;;14.80;99.90;;;;;;4984771;28;20062;-62
2023/09/22 09:10:48;;;;;;;11.38;7.88;;;14.80;99.90;;;;;;4983862;28;20046;-61
2023/09/22 09:13:16;;;;;;;9.20;7.35;;;14.80;99.90;;;;;;4972242;28;20058;-61
2023/09/22 09:15:57;;;;;;;12.30;7.88;;;14.90;99.90;;;;;;4983437;28;20412;-60
2023/09/22 09:18:24;;;;;;;8.85;7.03;;;14.90;99.90;;;;;;4983781;28;20066;-62
2023/09/22 09:21:16;;;;;;;10.00;6.32;;;15.00;99.90;;;;;;4984318;28;20673;-61
2023/09/22 09:23:56;;;;;;;11.70;5.68;;;14.90;99.90;;;;;;4983578;28;20054;-62
2023/09/22 09:26:30;;;;;;;8.13;4.47;;;15.00;99.90;;;;;;4983593;28;20046;-62
2023/09/22 09:28:56;;;;;;;10.38;4.82;;;15.00;99.90;;;;;;4983672;28;20100;-62
2023/09/22 09:31:46;;;;;;;6.20;4.68;;;15.10;99.90;;;;;;4992069;28;20088;-58
2023/09/22 09:34:12;;;;;;;8.50;4.72;;;15.10;99.90;;;;;;4998614;28;20042;-54
2023/09/22 09:36:38;;;;;;;9.45;4.68;;;15.20;99.90;;;;;;5003552;28;20049;-56
2023/09/22 09:39:04;;;;;;;8.65;4.72;;;15.20;99.90;;;;;;4993182;28;20050;-59
2023/09/22 09:41:31;;;;;;;7.97;4.28;;;15.30;99.90;;;;;;4999712;28;20053;-59
2023/09/22 09:44:01;;;;;;;7.53;4.22;;;15.50;99.90;;;;;;4997200;28;20185;-58
2023/09/22 09:46:28;;;;;;;7.45;4.35;;;15.60;99.90;;;;;;4987626;28;20050;-59
2023/09/22 09:48:55;;;;;;;7.75;4.47;;;15.50;99.90;;;;;;4995466;28;20046;-57
2023/09/22 09:51:24;;;;;;;6.57;4.50;;;15.40;99.90;;;;;;4992149;28;20057;-57
2023/09/22 09:53:53;;;;;;;7.65;4.40;;;15.50;99.90;;;;;;4989079;28;20046;-58
2023/09/22 09:56:21;;;;;;;7.20;4.38;;;15.50;99.90;;;;;;4991395;28;20065;-60
2023/09/22 09:58:48;;;;;;;6.82;4.50;;;15.50;99.90;;;;;;4999282;28;20069;-59
2023/09/22 10:01:14;;;;;;;5.72;4.20;;;15.50;99.90;;;;;;4991510;28;20144;-60
2023/09/22 10:03:40;;;;;;;6.68;3.92;;;15.50;99.90;;;;;;4982406;28;20123;-60
2023/09/22 10:06:10;;;;;;;5.15;3.60;;;15.50;99.90;;;;;;4980218;28;20130;-60
2023/09/22 10:08:39;;;;;;;8.18;4.20;;;15.70;99.90;;;;;;5001925;28;20132;-60
2023/09/22 10:11:09;;;;;;;5.47;3.42;;;16.10;99.90;;;;;;4991984;28;20507;-59
2023/09/22 10:13:35;;;;;;;5.22;3.15;;;16.40;99.90;;;;;;5001586;28;20130;-59
2023/09/22 10:16:03;;;;;;;6.63;2.70;;;16.70;99.90;;;;;;5003392;28;20042;-59
2023/09/22 10:18:49;;;;;;;4.05;1.63;;;17.20;99.90;;;;;;5003476;28;20070;-59
2023/09/22 10:21:45;;;;;;;3.58;1.63;;;17.30;99.90;;;;;;5003292;28;20054;-60
2023/09/22 10:24:26;;;;;;;4.82;1.63;;;17.40;99.90;;;;;;4996317;28;20050;-60
2023/09/22 10:26:55;;;;;;;3.20;1.95;;;17.20;99.90;;;;;;4982834;28;20143;-60
2023/09/22 10:29:33;;;;;;;3.38;1.98;;;17.00;99.90;;;;;;4981959;28;20100;-60
2023/09/22 10:32:21;;;;;;;7.18;1.73;;;17.20;99.90;;;;;;4994260;28;20065;-60
2023/09/22 10:34:58;;;;;;;4.95;1.90;;;17.40;99.90;;;;;;4995652;28;20187;-60
2023/09/22 10:37:26;;;;;;;4.68;1.80;;;17.70;99.90;;;;;;4994896;28;20053;-60
2023/09/22 10:39:54;;;;;;;3.63;1.42;;;18.00;99.90;;;;;;4994482;28;20034;-60
2023/09/22 10:42:21;;;;;;;2.55;1.30;;;18.30;99.90;;;;;;4995429;28;20590;-60
2023/09/22 10:45:00;;;;;;;2.67;1.08;;;18.30;99.90;;;;;;5001704;28;20065;-60
2023/09/22 10:47:40;;;;;;;2.70;1.30;;;18.40;99.90;;;;;;4997142;28;20157;-60
2023/09/22 10:50:12;;;;;;;2.85;1.15;;;18.40;99.90;;;;;;4988568;28;20054;-60
2023/09/22 10:52:38;;;;;;;2.33;0.90;;;18.60;99.90;;;;;;4982975;28;20101;-61
2023/09/22 10:55:05;;;;;;;2.08;1.00;;;18.70;99.90;;;;;;4982484;28;20061;-61
2023/09/22 10:57:33;;;;;;;3.30;0.95;;;18.60;99.90;;;;;;4989651;28;20785;-61
2023/09/22 10:59:59;;;;;;;2.40;1.00;;;18.50;99.90;;;;;;4987549;28;20050;-60
2023/09/22 11:02:26;;;;;;;3.38;1.23;;;18.40;99.90;;;;;;4981645;28;20615;-60
2023/09/22 11:04:53;;;;;;;2.85;1.50;;;18.10;99.90;;;;;;4985962;28;20365;-60
2023/09/22 11:07:34;;;;;;;2.53;1.10;;;17.90;99.90;;;;;;5002068;28;20566;-60
2023/09/22 11:10:00;;;;;;;3.30;1.10;;;17.70;99.90;;;;;;4987664;28;20685;-61
2023/09/22 11:12:29;;;;;;;3.85;1.20;;;17.60;99.90;;;;;;4993497;28;20042;-61
2023/09/22 11:14:56;;;;;;;2.42;1.00;;;17.80;99.90;;;;;;4982951;28;20038;-60
2023/09/22 11:17:22;;;;;;;1.30;0.88;;;18.20;99.90;;;;;;4990859;28;20045;-60
2023/09/22 11:19:50;;;;;;;3.88;1.15;;;18.30;99.90;;;;;;4997795;28;20038;-60
2023/09/22 11:22:16;;;;;;;2.58;1.20;;;18.30;99.90;;;;;;5002122;28;20145;-59
2023/09/22 11:24:42;;;;;;;2.95;0.95;;;18.30;99.90;;;;;;5001074;28;20133;-60
2023/09/22 11:27:10;;;;;;;2.17;0.88;;;18.20;99.90;;;;;;5002533;28;20053;-60
2023/09/22 11:29:36;;;;;;;3.70;1.30;;;18.40;99.90;;;;;;4999255;28;20608;-60
2023/09/22 11:32:03;;;;;;;2.40;0.90;;;18.40;99.90;;;;;;4989482;28;20038;-61
2023/09/22 11:34:29;;;;;;;4.85;0.90;;;18.40;99.90;;;;;;4998412;28;20049;-63
2023/09/22 11:36:55;;;;;;;4.10;1.13;;;18.40;99.90;;;;;;4993828;28;20464;-60
2023/09/22 11:39:29;;;;;;;2.28;0.77;;;18.40;99.90;;;;;;5004275;28;20054;-60
2023/09/22 11:41:55;;;;;;;;;;;18.30;99.90;;;;;;4995304;28;20066;-61
2023/09/22 11:44:21;;;;;;;4.00;0.88;;;18.30;99.90;;;;;;4994613;28;19945;-61
2023/09/22 11:46:47;;;;;;;3.47;0.95;;;18.30;99.90;;;;;;4996875;28;20560;-62
2023/09/22 11:49:13;;;;;;;2.25;0.93;;;18.50;99.90;;;;;;4992713;28;20409;-61
2023/09/22 11:51:56;;;;;;;1.45;0.88;;;18.40;99.90;;;;;;4996406;28;20054;-62
2023/09/22 11:54:24;;;;;;;2.05;1.02;;;18.60;99.10;;;;;;5005273;28;20041;-62
2023/09/22 11:56:58;;;;;;;3.15;1.15;;;18.60;99.60;;;;;;5006229;28;20113;-62
2023/09/22 11:59:31;;;;;;;2.63;1.20;;;18.70;99.90;;;;;;5003707;28;20050;-62
2023/09/22 12:01:57;;;;;;;1.80;0.90;;;18.90;99.50;;;;;;4999058;28;20081;-62
2023/09/22 12:04:23;;;;;;;6.40;1.17;;;18.70;99.90;;;;;;5003790;28;20411;-62
2023/09/22 12:06:50;;;;;;;2.13;0.98;;;18.70;99.90;;;;;;5005742;28;20041;-62
2023/09/22 12:09:16;;;;;;;3.88;1.10;;;18.70;99.90;;;;;;4998487;28;20637;-63
2023/09/22 12:11:43;;;;;;;3.28;1.10;;;18.80;99.70;;;;;;4995710;28;20044;-62
2023/09/22 12:14:12;;;;;;;2.50;1.20;;;18.70;99.90;;;;;;4985337;28;20046;-62
2023/09/22 12:16:38;;;;;;;3.28;0.95;;;18.70;99.80;;;;;;4985659;28;20062;-63
2023/09/22 12:19:04;;;;;;;3.40;1.10;;;18.60;99.90;;;;;;4985784;28;20096;-63
2023/09/22 12:21:31;;;;;;;2.40;0.98;;;18.30;99.90;;;;;;4985765;28;20042;-62
2023/09/22 12:23:57;;;;;;;2.90;1.15;;;18.20;99.90;;;;;;4986320;28;20050;-62
2023/09/22 12:26:24;;;;;;;2.90;0.98;;;18.10;99.90;;;;;;4985100;28;20046;-62
2023/09/22 12:28:50;;;;;;;2.20;0.98;;;18.00;99.90;;;;;;4984602;28;20071;-63
2023/09/22 12:31:16;;;;;;;2.00;0.90;;;17.90;99.90;;;;;;4990105;28;20054;-63
2023/09/22 12:33:42;;;;;;;2.90;1.30;;;17.80;99.90;;;;;;5001996;28;20033;-59
2023/09/22 12:36:13;;;;;;;4.35;1.20;;;17.70;99.90;;;;;;5003047;28;20045;-58
2023/09/22 12:38:39;;;;;;;2.53;1.10;;;17.60;99.90;;;;;;5004714;28;20188;-57